sensor_id;sensor_type;location;lat;lon;timestamp;pressure;altitude;pressure_sealevel;temperature;humidity
73518;BME280;61766;60.318;25.044;2023-05-03T00:02:23;101191.18;;;5.75;39.47
73518;BME280;61766;60.318;25.044;2023-05-03T00:04:51;101197.49;;;6.12;39.12
73518;BME280;61766;60.318;25.044;2023-05-03T00:07:13;101202.67;;;6.39;38.51
73518;BME280;61766;60.318;25.044;2023-05-03T00:09:39;101210.98;;;6.24;38.57
73518;BME280;61766;60.318;25.044;2023-05-03T00:12:04;101214.22;;;5.90;38.78
73518;BME280;61766;60.318;25.044;2023-05-03T00:14:30;101219.07;;;6.14;38.57
73518;BME280;61766;60.318;25.044;2023-05-03T00:16:54;101216.46;;;5.90;38.74
73518;BME280;61766;60.318;25.044;2023-05-03T00:19:19;101222.27;;;6.15;38.75
73518;BME280;61766;60.318;25.044;2023-05-03T00:21:45;101230.62;;;5.49;39.26
73518;BME280;61766;60.318;25.044;2023-05-03T00:24:10;101236.81;;;5.93;38.93
73518;BME280;61766;60.318;25.044;2023-05-03T00:26:35;101239.50;;;6.01;38.93
73518;BME280;61766;60.318;25.044;2023-05-03T00:29:00;101242.88;;;5.89;39.03
73518;BME280;61766;60.318;25.044;2023-05-03T00:31:25;101247.49;;;6.00;39.25
73518;BME280;61766;60.318;25.044;2023-05-03T00:33:50;101245.39;;;5.63;39.59
73518;BME280;61766;60.318;25.044;2023-05-03T00:36:16;101249.58;;;5.32;40.02
73518;BME280;61766;60.318;25.044;2023-05-03T00:38:41;101249.25;;;5.62;39.56
73518;BME280;61766;60.318;25.044;2023-05-03T00:41:08;101256.56;;;6.01;39.13
73518;BME280;61766;60.318;25.044;2023-05-03T00:43:32;101261.15;;;6.03;38.73
73518;BME280;61766;60.318;25.044;2023-05-03T00:45:57;101262.61;;;6.05;38.39
73518;BME280;61766;60.318;25.044;2023-05-03T00:48:22;101266.72;;;5.65;38.99
73518;BME280;61766;60.318;25.044;2023-05-03T00:50:47;101269.75;;;5.73;38.99
73518;BME280;61766;60.318;25.044;2023-05-03T00:53:12;101275.90;;;5.60;38.77
73518;BME280;61766;60.318;25.044;2023-05-03T00:55:37;101277.37;;;5.75;38.62
73518;BME280;61766;60.318;25.044;2023-05-03T00:58:03;101280.57;;;5.82;38.47
73518;BME280;61766;60.318;25.044;2023-05-03T01:00:28;101285.42;;;5.72;38.58
73518;BME280;61766;60.318;25.044;2023-05-03T01:02:53;101288.68;;;5.42;38.92
73518;BME280;61766;60.318;25.044;2023-05-03T01:05:19;101292.12;;;5.75;39.09
73518;BME280;61766;60.318;25.044;2023-05-03T01:07:50;101298.12;;;5.75;39.22
73518;BME280;61766;60.318;25.044;2023-05-03T01:10:18;101297.89;;;5.92;38.74
73518;BME280;61766;60.318;25.044;2023-05-03T01:12:41;101299.05;;;5.83;38.21
73518;BME280;61766;60.318;25.044;2023-05-03T01:15:06;101294.02;;;5.62;38.56
73518;BME280;61766;60.318;25.044;2023-05-03T01:17:28;101293.81;;;5.63;38.53
73518;BME280;61766;60.318;25.044;2023-05-03T01:19:50;101301.23;;;6.36;38.12
73518;BME280;61766;60.318;25.044;2023-05-03T01:22:31;101302.47;;;6.00;37.90
73518;BME280;61766;60.318;25.044;2023-05-03T01:24:40;101298.59;;;6.09;38.00
73518;BME280;61766;60.318;25.044;2023-05-03T01:27:05;101303.22;;;5.79;38.22
73518;BME280;61766;60.318;25.044;2023-05-03T01:29:30;101302.71;;;5.84;38.03
73518;BME280;61766;60.318;25.044;2023-05-03T01:31:59;101308.01;;;6.09;37.98
73518;BME280;61766;60.318;25.044;2023-05-03T01:34:26;101312.37;;;5.98;38.47
73518;BME280;61766;60.318;25.044;2023-05-03T01:36:47;101317.19;;;5.71;38.94
73518;BME280;61766;60.318;25.044;2023-05-03T01:39:15;101319.31;;;5.60;38.89
73518;BME280;61766;60.318;25.044;2023-05-03T01:41:37;101320.51;;;5.85;38.88
73518;BME280;61766;60.318;25.044;2023-05-03T01:44:02;101319.83;;;5.71;38.60
73518;BME280;61766;60.318;25.044;2023-05-03T01:46:26;101322.30;;;5.75;38.58
73518;BME280;61766;60.318;25.044;2023-05-03T01:48:52;101320.61;;;6.02;38.31
73518;BME280;61766;60.318;25.044;2023-05-03T01:51:17;101323.56;;;6.08;38.13
73518;BME280;61766;60.318;25.044;2023-05-03T01:53:42;101324.08;;;5.89;38.74
73518;BME280;61766;60.318;25.044;2023-05-03T01:56:07;101328.18;;;5.86;38.58
73518;BME280;61766;60.318;25.044;2023-05-03T01:58:32;101328.31;;;6.01;38.45
73518;BME280;61766;60.318;25.044;2023-05-03T02:00:58;101329.92;;;5.40;38.90
73518;BME280;61766;60.318;25.044;2023-05-03T02:03:23;101333.80;;;5.90;38.49
73518;BME280;61766;60.318;25.044;2023-05-03T02:05:48;101334.23;;;5.78;38.73
73518;BME280;61766;60.318;25.044;2023-05-03T02:08:13;101339.37;;;5.80;38.76
73518;BME280;61766;60.318;25.044;2023-05-03T02:10:38;101342.35;;;5.85;38.70
73518;BME280;61766;60.318;25.044;2023-05-03T02:13:03;101343.51;;;5.64;39.09
73518;BME280;61766;60.318;25.044;2023-05-03T02:15:29;101346.56;;;5.90;38.78
73518;BME280;61766;60.318;25.044;2023-05-03T02:17:54;101346.61;;;5.77;39.47
73518;BME280;61766;60.318;25.044;2023-05-03T02:20:19;101349.99;;;5.97;39.08
73518;BME280;61766;60.318;25.044;2023-05-03T02:22:44;101351.11;;;5.54;39.78
73518;BME280;61766;60.318;25.044;2023-05-03T02:25:09;101350.65;;;5.69;39.63
73518;BME280;61766;60.318;25.044;2023-05-03T02:27:35;101353.60;;;5.49;39.97
73518;BME280;61766;60.318;25.044;2023-05-03T02:30:00;101356.56;;;5.59;39.92
73518;BME280;61766;60.318;25.044;2023-05-03T02:32:25;101357.62;;;5.61;39.60
73518;BME280;61766;60.318;25.044;2023-05-03T02:34:50;101357.49;;;5.77;39.32
73518;BME280;61766;60.318;25.044;2023-05-03T02:37:15;101357.09;;;6.00;38.86
73518;BME280;61766;60.318;25.044;2023-05-03T02:39:41;101358.61;;;5.65;39.44
73518;BME280;61766;60.318;25.044;2023-05-03T02:42:06;101362.67;;;6.00;39.36
73518;BME280;61766;60.318;25.044;2023-05-03T02:44:31;101362.35;;;6.23;38.92
73518;BME280;61766;60.318;25.044;2023-05-03T02:46:56;101361.21;;;5.91;38.85
73518;BME280;61766;60.318;25.044;2023-05-03T02:49:21;101362.31;;;5.61;39.22
73518;BME280;61766;60.318;25.044;2023-05-03T02:51:47;101362.12;;;5.65;39.58
73518;BME280;61766;60.318;25.044;2023-05-03T02:54:12;101363.82;;;5.63;39.33
73518;BME280;61766;60.318;25.044;2023-05-03T02:56:37;101363.21;;;5.96;39.57
73518;BME280;61766;60.318;25.044;2023-05-03T02:59:02;101365.23;;;5.56;39.94
73518;BME280;61766;60.318;25.044;2023-05-03T03:01:27;101370.13;;;5.52;40.07
73518;BME280;61766;60.318;25.044;2023-05-03T03:03:53;101371.55;;;5.75;39.74
73518;BME280;61766;60.318;25.044;2023-05-03T03:06:18;101376.46;;;6.23;39.37
73518;BME280;61766;60.318;25.044;2023-05-03T03:08:43;101377.40;;;5.77;39.39
73518;BME280;61766;60.318;25.044;2023-05-03T03:11:08;101380.81;;;5.56;40.10
73518;BME280;61766;60.318;25.044;2023-05-03T03:13:34;101384.38;;;5.54;39.94
73518;BME280;61766;60.318;25.044;2023-05-03T03:15:58;101388.44;;;5.77;39.49
73518;BME280;61766;60.318;25.044;2023-05-03T03:18:24;101389.69;;;5.66;39.84
73518;BME280;61766;60.318;25.044;2023-05-03T03:20:49;101395.71;;;5.42;40.10
73518;BME280;61766;60.318;25.044;2023-05-03T03:23:14;101395.75;;;5.69;39.80
73518;BME280;61766;60.318;25.044;2023-05-03T03:25:40;101398.42;;;5.88;39.31
73518;BME280;61766;60.318;25.044;2023-05-03T03:28:04;101401.33;;;5.94;39.48
73518;BME280;61766;60.318;25.044;2023-05-03T03:30:30;101407.42;;;5.50;40.41
73518;BME280;61766;60.318;25.044;2023-05-03T03:32:55;101406.88;;;5.65;40.48
73518;BME280;61766;60.318;25.044;2023-05-03T03:35:20;101408.62;;;5.91;40.42
73518;BME280;61766;60.318;25.044;2023-05-03T03:37:45;101412.32;;;5.39;40.70
73518;BME280;61766;60.318;25.044;2023-05-03T03:40:11;101408.97;;;5.68;40.64
73518;BME280;61766;60.318;25.044;2023-05-03T03:42:36;101413.28;;;5.81;40.79
73518;BME280;61766;60.318;25.044;2023-05-03T03:45:01;101412.86;;;5.68;40.92
73518;BME280;61766;60.318;25.044;2023-05-03T03:47:26;101415.88;;;5.74;40.96
73518;BME280;61766;60.318;25.044;2023-05-03T03:49:52;101416.12;;;5.72;40.71
73518;BME280;61766;60.318;25.044;2023-05-03T03:52:17;101417.73;;;5.50;40.76
73518;BME280;61766;60.318;25.044;2023-05-03T03:54:42;101417.31;;;5.82;40.60
73518;BME280;61766;60.318;25.044;2023-05-03T03:57:07;101419.64;;;5.87;40.64
73518;BME280;61766;60.318;25.044;2023-05-03T03:59:32;101421.32;;;6.06;40.55
73518;BME280;61766;60.318;25.044;2023-05-03T04:01:57;101418.11;;;5.65;40.92
73518;BME280;61766;60.318;25.044;2023-05-03T04:04:23;101417.92;;;5.70;40.68
73518;BME280;61766;60.318;25.044;2023-05-03T04:06:48;101419.57;;;5.99;40.43
73518;BME280;61766;60.318;25.044;2023-05-03T04:09:13;101422.26;;;6.21;39.95
73518;BME280;61766;60.318;25.044;2023-05-03T04:11:39;101420.08;;;6.20;40.22
73518;BME280;61766;60.318;25.044;2023-05-03T04:14:03;101422.61;;;6.18;40.78
73518;BME280;61766;60.318;25.044;2023-05-03T04:16:29;101422.12;;;6.24;40.26
73518;BME280;61766;60.318;25.044;2023-05-03T04:18:54;101428.79;;;6.47;39.91
73518;BME280;61766;60.318;25.044;2023-05-03T04:21:19;101428.94;;;6.69;39.43
73518;BME280;61766;60.318;25.044;2023-05-03T04:23:44;101434.22;;;6.60;39.78
73518;BME280;61766;60.318;25.044;2023-05-03T04:26:09;101437.49;;;6.78;39.44
73518;BME280;61766;60.318;25.044;2023-05-03T04:28:34;101439.04;;;6.47;42.12
73518;BME280;61766;60.318;25.044;2023-05-03T04:31:00;101441.17;;;6.81;38.98
73518;BME280;61766;60.318;25.044;2023-05-03T04:33:25;101443.44;;;6.91;39.14
73518;BME280;61766;60.318;25.044;2023-05-03T04:35:50;101447.18;;;6.93;38.65
73518;BME280;61766;60.318;25.044;2023-05-03T04:38:15;101450.83;;;7.06;38.60
73518;BME280;61766;60.318;25.044;2023-05-03T04:40:40;101453.49;;;7.51;38.85
73518;BME280;61766;60.318;25.044;2023-05-03T04:43:05;101452.93;;;7.26;37.83
73518;BME280;61766;60.318;25.044;2023-05-03T04:45:30;101454.62;;;7.17;38.65
73518;BME280;61766;60.318;25.044;2023-05-03T04:47:55;101455.61;;;7.23;38.69
73518;BME280;61766;60.318;25.044;2023-05-03T04:50:21;101460.70;;;7.41;38.04
73518;BME280;61766;60.318;25.044;2023-05-03T04:52:46;101462.47;;;7.84;37.98
73518;BME280;61766;60.318;25.044;2023-05-03T04:55:11;101468.21;;;8.16;37.31
73518;BME280;61766;60.318;25.044;2023-05-03T04:57:36;101466.93;;;8.25;37.31
73518;BME280;61766;60.318;25.044;2023-05-03T05:00:01;101465.11;;;7.47;37.83
73518;BME280;61766;60.318;25.044;2023-05-03T05:02:26;101471.24;;;7.71;38.39
73518;BME280;61766;60.318;25.044;2023-05-03T05:04:52;101474.42;;;7.79;38.40
73518;BME280;61766;60.318;25.044;2023-05-03T05:07:16;101475.30;;;8.09;37.45
73518;BME280;61766;60.318;25.044;2023-05-03T05:09:41;101476.55;;;8.41;36.55
73518;BME280;61766;60.318;25.044;2023-05-03T05:12:07;101476.02;;;7.83;38.41
73518;BME280;61766;60.318;25.044;2023-05-03T05:14:32;101478.24;;;8.02;38.76
73518;BME280;61766;60.318;25.044;2023-05-03T05:16:57;101479.38;;;8.09;38.39
73518;BME280;61766;60.318;25.044;2023-05-03T05:19:22;101482.38;;;8.07;37.63
73518;BME280;61766;60.318;25.044;2023-05-03T05:21:47;101488.31;;;8.39;36.88
73518;BME280;61766;60.318;25.044;2023-05-03T05:24:12;101490.12;;;8.36;37.17
73518;BME280;61766;60.318;25.044;2023-05-03T05:26:38;101492.71;;;7.60;37.60
73518;BME280;61766;60.318;25.044;2023-05-03T05:29:02;101495.73;;;8.09;38.28
73518;BME280;61766;60.318;25.044;2023-05-03T05:31:27;101496.36;;;8.82;36.88
73518;BME280;61766;60.318;25.044;2023-05-03T05:33:52;101499.26;;;7.98;38.65
73518;BME280;61766;60.318;25.044;2023-05-03T05:36:18;101500.76;;;7.91;39.41
73518;BME280;61766;60.318;25.044;2023-05-03T05:38:43;101501.83;;;7.59;40.81
73518;BME280;61766;60.318;25.044;2023-05-03T05:41:08;101501.45;;;7.88;39.73
73518;BME280;61766;60.318;25.044;2023-05-03T05:43:33;101506.70;;;9.29;36.74
73518;BME280;61766;60.318;25.044;2023-05-03T05:45:58;101507.38;;;8.85;38.00
73518;BME280;61766;60.318;25.044;2023-05-03T05:48:23;101509.79;;;9.08;37.93
73518;BME280;61766;60.318;25.044;2023-05-03T05:50:48;101510.01;;;8.93;37.46
73518;BME280;61766;60.318;25.044;2023-05-03T05:53:13;101511.17;;;9.09;38.56
73518;BME280;61766;60.318;25.044;2023-05-03T05:55:38;101513.27;;;9.50;37.03
73518;BME280;61766;60.318;25.044;2023-05-03T05:58:03;101516.08;;;9.13;36.52
73518;BME280;61766;60.318;25.044;2023-05-03T06:00:29;101519.12;;;9.67;35.05
73518;BME280;61766;60.318;25.044;2023-05-03T06:02:53;101519.80;;;9.67;34.83
73518;BME280;61766;60.318;25.044;2023-05-03T06:05:19;101521.99;;;8.75;37.08
73518;BME280;61766;60.318;25.044;2023-05-03T06:07:44;101521.78;;;8.66;37.46
73518;BME280;61766;60.318;25.044;2023-05-03T06:10:09;101523.13;;;9.04;38.78
73518;BME280;61766;60.318;25.044;2023-05-03T06:12:34;101524.82;;;9.45;37.71
73518;BME280;61766;60.318;25.044;2023-05-03T06:14:59;101524.73;;;10.07;37.52
73518;BME280;61766;60.318;25.044;2023-05-03T06:17:24;101528.37;;;10.42;33.99
73518;BME280;61766;60.318;25.044;2023-05-03T06:19:49;101532.26;;;9.89;36.32
73518;BME280;61766;60.318;25.044;2023-05-03T06:22:14;101530.88;;;9.91;35.14
73518;BME280;61766;60.318;25.044;2023-05-03T06:24:39;101534.03;;;10.45;32.97
73518;BME280;61766;60.318;25.044;2023-05-03T06:27:04;101540.37;;;9.59;34.95
73518;BME280;61766;60.318;25.044;2023-05-03T06:29:29;101541.51;;;9.38;37.34
73518;BME280;61766;60.318;25.044;2023-05-03T06:31:54;101535.49;;;10.47;34.61
73518;BME280;61766;60.318;25.044;2023-05-03T06:34:19;101537.15;;;9.94;36.32
73518;BME280;61766;60.318;25.044;2023-05-03T06:36:44;101538.71;;;10.69;35.39
73518;BME280;61766;60.318;25.044;2023-05-03T06:39:09;101543.30;;;11.18;33.50
73518;BME280;61766;60.318;25.044;2023-05-03T06:41:34;101544.44;;;11.46;33.99
73518;BME280;61766;60.318;25.044;2023-05-03T06:43:59;101548.51;;;11.92;32.92
73518;BME280;61766;60.318;25.044;2023-05-03T06:46:26;101551.02;;;12.06;29.92
73518;BME280;61766;60.318;25.044;2023-05-03T06:48:49;101551.83;;;11.99;32.41
73518;BME280;61766;60.318;25.044;2023-05-03T06:51:14;101551.78;;;12.62;31.06
73518;BME280;61766;60.318;25.044;2023-05-03T06:53:39;101554.77;;;12.51;30.78
73518;BME280;61766;60.318;25.044;2023-05-03T06:56:05;101560.34;;;12.61;31.07
73518;BME280;61766;60.318;25.044;2023-05-03T06:58:29;101565.88;;;12.12;30.87
73518;BME280;61766;60.318;25.044;2023-05-03T07:00:55;101566.75;;;11.70;31.36
73518;BME280;61766;60.318;25.044;2023-05-03T07:03:19;101569.73;;;11.60;32.04
73518;BME280;61766;60.318;25.044;2023-05-03T07:05:45;101569.42;;;12.19;30.08
73518;BME280;61766;60.318;25.044;2023-05-03T07:08:10;101573.84;;;12.00;31.43
73518;BME280;61766;60.318;25.044;2023-05-03T07:10:35;101574.04;;;11.61;31.06
73518;BME280;61766;60.318;25.044;2023-05-03T07:13:00;101572.77;;;10.76;32.49
73518;BME280;61766;60.318;25.044;2023-05-03T07:15:25;101571.68;;;11.57;32.63
73518;BME280;61766;60.318;25.044;2023-05-03T07:17:50;101576.76;;;11.57;31.63
73518;BME280;61766;60.318;25.044;2023-05-03T07:20:15;101571.87;;;12.31;32.29
73518;BME280;61766;60.318;25.044;2023-05-03T07:22:41;101576.99;;;12.94;30.42
73518;BME280;61766;60.318;25.044;2023-05-03T07:25:07;101581.09;;;13.75;28.59
73518;BME280;61766;60.318;25.044;2023-05-03T07:27:32;101579.35;;;13.56;27.68
73518;BME280;61766;60.318;25.044;2023-05-03T07:29:58;101580.53;;;13.63;28.23
73518;BME280;61766;60.318;25.044;2023-05-03T07:32:24;101581.60;;;14.03;26.66
73518;BME280;61766;60.318;25.044;2023-05-03T07:34:50;101584.21;;;13.09;29.06
73518;BME280;61766;60.318;25.044;2023-05-03T07:37:16;101586.90;;;13.25;30.65
73518;BME280;61766;60.318;25.044;2023-05-03T07:39:41;101590.57;;;13.64;29.38
73518;BME280;61766;60.318;25.044;2023-05-03T07:42:07;101583.61;;;14.45;27.83
73518;BME280;61766;60.318;25.044;2023-05-03T07:44:33;101588.09;;;14.65;26.60
73518;BME280;61766;60.318;25.044;2023-05-03T07:46:59;101582.67;;;15.01;24.75
73518;BME280;61766;60.318;25.044;2023-05-03T07:49:25;101588.62;;;15.16;26.41
73518;BME280;61766;60.318;25.044;2023-05-03T07:51:50;101587.41;;;15.43;25.87
73518;BME280;61766;60.318;25.044;2023-05-03T07:54:16;101592.51;;;16.04;25.01
73518;BME280;61766;60.318;25.044;2023-05-03T07:56:42;101589.64;;;15.82;24.60
73518;BME280;61766;60.318;25.044;2023-05-03T07:59:08;101591.71;;;16.31;25.76
73518;BME280;61766;60.318;25.044;2023-05-03T08:01:34;101591.79;;;16.57;24.31
73518;BME280;61766;60.318;25.044;2023-05-03T08:03:59;101595.29;;;15.84;24.35
73518;BME280;61766;60.318;25.044;2023-05-03T08:06:25;101595.60;;;16.32;24.04
73518;BME280;61766;60.318;25.044;2023-05-03T08:08:51;101597.51;;;15.85;25.14
73518;BME280;61766;60.318;25.044;2023-05-03T08:11:17;101590.51;;;16.44;24.10
73518;BME280;61766;60.318;25.044;2023-05-03T08:13:43;101596.27;;;17.21;23.18
73518;BME280;61766;60.318;25.044;2023-05-03T08:16:08;101595.06;;;16.97;23.76
73518;BME280;61766;60.318;25.044;2023-05-03T08:18:34;101587.91;;;16.65;19.94
73518;BME280;61766;60.318;25.044;2023-05-03T08:21:00;101590.81;;;16.90;23.43
73518;BME280;61766;60.318;25.044;2023-05-03T08:23:26;101596.17;;;16.87;20.95
73518;BME280;61766;60.318;25.044;2023-05-03T08:25:51;101593.72;;;16.68;23.03
73518;BME280;61766;60.318;25.044;2023-05-03T08:28:17;101595.62;;;16.72;22.40
73518;BME280;61766;60.318;25.044;2023-05-03T08:30:43;101589.39;;;16.58;21.37
73518;BME280;61766;60.318;25.044;2023-05-03T08:33:09;101596.82;;;17.28;19.46
73518;BME280;61766;60.318;25.044;2023-05-03T08:35:34;101599.65;;;16.68;20.86
73518;BME280;61766;60.318;25.044;2023-05-03T08:38:00;101592.78;;;17.02;20.32
73518;BME280;61766;60.318;25.044;2023-05-03T08:40:26;101601.18;;;16.34;22.01
73518;BME280;61766;60.318;25.044;2023-05-03T08:42:54;101597.69;;;16.59;20.17
73518;BME280;61766;60.318;25.044;2023-05-03T08:45:17;101596.92;;;17.17;20.02
73518;BME280;61766;60.318;25.044;2023-05-03T08:47:44;101597.47;;;17.08;20.39
73518;BME280;61766;60.318;25.044;2023-05-03T08:50:10;101602.91;;;17.04;21.14
73518;BME280;61766;60.318;25.044;2023-05-03T08:52:35;101597.57;;;16.74;19.89
73518;BME280;61766;60.318;25.044;2023-05-03T08:55:00;101604.15;;;15.68;22.48
73518;BME280;61766;60.318;25.044;2023-05-03T08:57:27;101601.37;;;15.80;18.82
73518;BME280;61766;60.318;25.044;2023-05-03T08:59:53;101599.98;;;15.78;19.61
73518;BME280;61766;60.318;25.044;2023-05-03T09:02:18;101605.68;;;15.91;20.08
73518;BME280;61766;60.318;25.044;2023-05-03T09:04:44;101606.65;;;16.09;20.53
73518;BME280;61766;60.318;25.044;2023-05-03T09:07:10;101606.18;;;16.41;20.23
73518;BME280;61766;60.318;25.044;2023-05-03T09:09:35;101598.38;;;16.75;20.92
73518;BME280;61766;60.318;25.044;2023-05-03T09:12:01;101594.89;;;16.69;18.42
73518;BME280;61766;60.318;25.044;2023-05-03T09:14:27;101603.63;;;17.11;17.85
73518;BME280;61766;60.318;25.044;2023-05-03T09:16:52;101599.22;;;16.41;17.34
73518;BME280;61766;60.318;25.044;2023-05-03T09:19:18;101601.22;;;16.41;17.54
73518;BME280;61766;60.318;25.044;2023-05-03T09:21:45;101600.34;;;16.33;17.72
73518;BME280;61766;60.318;25.044;2023-05-03T09:24:12;101601.29;;;16.73;19.21
73518;BME280;61766;60.318;25.044;2023-05-03T09:26:36;101597.92;;;16.53;18.91
73518;BME280;61766;60.318;25.044;2023-05-03T09:29:02;101600.18;;;17.55;17.41
73518;BME280;61766;60.318;25.044;2023-05-03T09:31:28;101600.23;;;17.39;18.17
73518;BME280;61766;60.318;25.044;2023-05-03T09:33:53;101608.16;;;17.02;17.23
73518;BME280;61766;60.318;25.044;2023-05-03T09:36:19;101601.17;;;17.28;17.75
73518;BME280;61766;60.318;25.044;2023-05-03T09:38:44;101597.81;;;16.74;16.29
73518;BME280;61766;60.318;25.044;2023-05-03T09:41:10;101598.52;;;15.57;18.39
73518;BME280;61766;60.318;25.044;2023-05-03T09:43:47;101595.68;;;15.68;18.01
73518;BME280;61766;60.318;25.044;2023-05-03T09:46:08;101603.48;;;16.25;19.88
73518;BME280;61766;60.318;25.044;2023-05-03T09:48:27;101609.38;;;16.39;18.86
73518;BME280;61766;60.318;25.044;2023-05-03T09:50:53;101611.73;;;16.60;18.39
73518;BME280;61766;60.318;25.044;2023-05-03T09:53:20;101612.07;;;16.03;19.30
73518;BME280;61766;60.318;25.044;2023-05-03T09:55:46;101615.27;;;16.04;17.98
73518;BME280;61766;60.318;25.044;2023-05-03T09:58:11;101624.58;;;16.08;19.47
73518;BME280;61766;60.318;25.044;2023-05-03T10:00:38;101634.95;;;14.68;18.20
73518;BME280;61766;60.318;25.044;2023-05-03T10:03:06;101643.09;;;12.90;20.76
73518;BME280;61766;60.318;25.044;2023-05-03T10:05:30;101642.34;;;12.65;22.10
73518;BME280;61766;60.318;25.044;2023-05-03T10:07:55;101637.65;;;12.65;23.42
73518;BME280;61766;60.318;25.044;2023-05-03T10:10:20;101643.38;;;11.75;23.73
73518;BME280;61766;60.318;25.044;2023-05-03T10:12:46;101640.78;;;11.49;25.65
73518;BME280;61766;60.318;25.044;2023-05-03T10:15:12;101645.12;;;11.51;24.58
73518;BME280;61766;60.318;25.044;2023-05-03T10:17:37;101643.24;;;11.49;25.05
73518;BME280;61766;60.318;25.044;2023-05-03T10:20:08;101643.43;;;11.82;25.01
73518;BME280;61766;60.318;25.044;2023-05-03T10:22:27;101643.75;;;11.79;25.13
73518;BME280;61766;60.318;25.044;2023-05-03T10:25:07;101641.06;;;12.63;23.85
73518;BME280;61766;60.318;25.044;2023-05-03T10:27:18;101643.48;;;12.48;23.56
73518;BME280;61766;60.318;25.044;2023-05-03T10:29:45;101641.76;;;12.59;23.31
73518;BME280;61766;60.318;25.044;2023-05-03T10:34:36;101642.98;;;12.74;24.60
73518;BME280;61766;60.318;25.044;2023-05-03T10:37:06;101647.42;;;12.38;25.14
73518;BME280;61766;60.318;25.044;2023-05-03T10:39:28;101642.67;;;13.77;24.66
73518;BME280;61766;60.318;25.044;2023-05-03T10:41:57;101641.10;;;13.72;23.51
73518;BME280;61766;60.318;25.044;2023-05-03T10:44:24;101643.77;;;14.62;22.85
73518;BME280;61766;60.318;25.044;2023-05-03T10:46:45;101646.48;;;14.65;21.87
73518;BME280;61766;60.318;25.044;2023-05-03T10:49:17;101653.03;;;14.80;21.73
73518;BME280;61766;60.318;25.044;2023-05-03T10:51:36;101661.92;;;14.97;22.23
73518;BME280;61766;60.318;25.044;2023-05-03T10:54:02;101660.71;;;15.58;24.77
73518;BME280;61766;60.318;25.044;2023-05-03T10:56:28;101668.14;;;15.57;23.34
73518;BME280;61766;60.318;25.044;2023-05-03T10:58:55;101668.79;;;15.34;24.44
73518;BME280;61766;60.318;25.044;2023-05-03T11:01:20;101677.41;;;14.60;26.09
73518;BME280;61766;60.318;25.044;2023-05-03T11:03:50;101684.99;;;14.85;25.58
73518;BME280;61766;60.318;25.044;2023-05-03T11:08:37;101679.93;;;15.47;27.55
73518;BME280;61766;60.318;25.044;2023-05-03T11:11:03;101670.85;;;15.65;26.57
73518;BME280;61766;60.318;25.044;2023-05-03T11:13:30;101672.39;;;16.20;26.10
73518;BME280;61766;60.318;25.044;2023-05-03T11:15:55;101672.65;;;16.37;22.88
73518;BME280;61766;60.318;25.044;2023-05-03T11:18:21;101669.29;;;16.35;23.57
73518;BME280;61766;60.318;25.044;2023-05-03T11:20:46;101663.87;;;16.71;24.72
73518;BME280;61766;60.318;25.044;2023-05-03T11:23:12;101660.50;;;17.31;21.49
73518;BME280;61766;60.318;25.044;2023-05-03T11:25:38;101662.92;;;16.85;22.48
73518;BME280;61766;60.318;25.044;2023-05-03T11:28:04;101668.47;;;17.25;23.23
73518;BME280;61766;60.318;25.044;2023-05-03T11:30:32;101672.93;;;17.33;21.98
73518;BME280;61766;60.318;25.044;2023-05-03T11:32:55;101683.50;;;17.15;19.83
73518;BME280;61766;60.318;25.044;2023-05-03T11:35:21;101670.62;;;16.99;19.04
73518;BME280;61766;60.318;25.044;2023-05-03T11:37:47;101670.37;;;17.47;17.64
73518;BME280;61766;60.318;25.044;2023-05-03T11:40:14;101671.35;;;17.58;18.59
73518;BME280;61766;60.318;25.044;2023-05-03T11:42:49;101669.57;;;17.42;19.76
73518;BME280;61766;60.318;25.044;2023-05-03T11:45:04;101672.43;;;17.44;18.96
73518;BME280;61766;60.318;25.044;2023-05-03T11:47:29;101673.66;;;17.77;19.30
73518;BME280;61766;60.318;25.044;2023-05-03T11:49:56;101679.25;;;17.21;17.60
73518;BME280;61766;60.318;25.044;2023-05-03T11:52:21;101672.82;;;17.85;16.84
73518;BME280;61766;60.318;25.044;2023-05-03T11:54:47;101679.13;;;17.76;18.54
73518;BME280;61766;60.318;25.044;2023-05-03T11:57:13;101676.35;;;17.52;16.69
73518;BME280;61766;60.318;25.044;2023-05-03T11:59:39;101678.37;;;16.51;18.33
73518;BME280;61766;60.318;25.044;2023-05-03T12:02:05;101679.14;;;16.85;18.29
73518;BME280;61766;60.318;25.044;2023-05-03T12:04:30;101682.70;;;16.87;17.70
73518;BME280;61766;60.318;25.044;2023-05-03T12:06:55;101686.86;;;16.00;18.43
73518;BME280;61766;60.318;25.044;2023-05-03T12:09:24;101688.39;;;16.53;18.03
73518;BME280;61766;60.318;25.044;2023-05-03T12:11:47;101690.23;;;15.18;20.18
73518;BME280;61766;60.318;25.044;2023-05-03T12:14:13;101697.22;;;15.69;19.21
73518;BME280;61766;60.318;25.044;2023-05-03T12:16:45;101710.25;;;14.69;22.25
73518;BME280;61766;60.318;25.044;2023-05-03T12:19:04;101705.29;;;13.62;23.96
73518;BME280;61766;60.318;25.044;2023-05-03T12:21:42;101703.03;;;13.56;25.39
73518;BME280;61766;60.318;25.044;2023-05-03T12:23:56;101703.35;;;12.49;27.04
73518;BME280;61766;60.318;25.044;2023-05-03T12:26:22;101704.51;;;11.82;28.56
73518;BME280;61766;60.318;25.044;2023-05-03T12:28:48;101704.68;;;12.47;28.08
73518;BME280;61766;60.318;25.044;2023-05-03T12:31:14;101719.31;;;12.38;28.99
73518;BME280;61766;60.318;25.044;2023-05-03T12:33:39;101715.80;;;12.82;23.44
73518;BME280;61766;60.318;25.044;2023-05-03T12:36:06;101712.27;;;12.30;23.94
73518;BME280;61766;60.318;25.044;2023-05-03T12:38:31;101708.36;;;11.84;24.50
73518;BME280;61766;60.318;25.044;2023-05-03T12:40:57;101709.12;;;12.69;24.46